Time;durP1;ratioP1;P1;durP2;ratioP2;P2;SDS_P1;SDS_P2;PMS_P1;PMS_P2;Temp;Humidity;BMP_temperature;BMP_pressure;BME280_temperature;BME280_humidity;BME280_pressure;Samples;Min_cycle;Max_cycle;Signal;HPM_P1;HPM_P2
2024/02/22 00:01:42;;;;;;;0.30;0.20;;;;;;;10.56;99.33;99163.59;5072329;28;20850;-48
2024/02/22 00:04:09;;;;;;;0.30;0.20;;;;;;;10.63;99.87;99150.88;5066965;28;20847;-48
2024/02/22 00:06:38;;;;;;;0.30;0.20;;;;;;;10.55;100.00;99143.28;5053728;28;20457;-49
2024/02/22 00:09:04;;;;;;;0.30;0.20;;;;;;;10.60;100.00;99145.72;5072191;28;20453;-48
2024/02/22 00:11:31;;;;;;;0.30;0.20;;;;;;;10.47;100.00;99136.59;5072192;28;20536;-49
2024/02/22 00:13:58;;;;;;;0.30;0.20;;;;;;;10.63;99.37;99125.16;5071615;28;20965;-48
2024/02/22 00:16:24;;;;;;;0.30;0.20;;;;;;;10.60;99.51;99125.31;5072031;28;20485;-49
2024/02/22 00:18:51;;;;;;;0.30;0.20;;;;;;;10.64;99.29;99116.25;5071744;28;20453;-48
2024/02/22 00:21:18;;;;;;;0.30;0.20;;;;;;;10.65;99.82;99123.28;5072409;28;20797;-49
2024/02/22 00:23:44;;;;;;;0.30;0.20;;;;;;;10.54;100.00;99114.09;5072172;28;20477;-48
2024/02/22 00:26:13;;;;;;;0.30;0.20;;;;;;;10.71;100.00;99110.66;5072025;28;20438;-48
2024/02/22 00:28:39;;;;;;;0.30;0.20;;;;;;;10.89;99.20;99110.63;5058106;28;20449;-49
2024/02/22 00:31:06;;;;;;;0.30;0.20;;;;;;;10.73;100.00;99103.47;5071937;28;20450;-48
2024/02/22 00:33:32;;;;;;;0.30;0.20;;;;;;;10.68;99.61;99096.56;5071377;28;20470;-48
2024/02/22 00:35:59;;;;;;;0.30;0.20;;;;;;;10.78;99.31;99089.00;5057134;28;20456;-49
2024/02/22 00:38:26;;;;;;;0.30;0.20;;;;;;;10.75;99.76;99075.88;5066732;28;20462;-49
2024/02/22 00:40:52;;;;;;;0.30;0.20;;;;;;;10.58;100.00;99078.50;5071602;28;20895;-48
2024/02/22 00:43:19;;;;;;;0.30;0.20;;;;;;;10.65;100.00;99071.94;5071743;28;20477;-48
2024/02/22 00:45:45;;;;;;;0.30;0.20;;;;;;;10.83;99.92;99071.06;5071538;28;20446;-48
2024/02/22 00:48:12;;;;;;;0.30;0.20;;;;;;;10.55;100.00;99063.56;5044069;28;20923;-49
2024/02/22 00:50:38;;;;;;;0.30;0.20;;;;;;;10.77;100.00;99063.38;5062646;28;20445;-49
2024/02/22 00:53:05;;;;;;;0.30;0.20;;;;;;;10.63;100.00;99055.22;5071334;28;20484;-49
2024/02/22 00:55:32;;;;;;;0.30;0.20;;;;;;;10.71;100.00;99050.38;5071661;28;20511;-49
2024/02/22 00:57:59;;;;;;;0.30;0.20;;;;;;;10.73;100.00;99037.88;5060941;28;20615;-49
2024/02/22 01:00:25;;;;;;;0.30;0.20;;;;;;;10.68;100.00;99045.19;5057161;28;20513;-48
2024/02/22 01:02:51;;;;;;;0.30;0.20;;;;;;;10.89;100.00;99032.66;5068039;28;20505;-48
2024/02/22 01:05:18;;;;;;;0.30;0.20;;;;;;;10.80;100.00;99028.66;5070512;28;20446;-48
2024/02/22 01:07:45;;;;;;;0.30;0.20;;;;;;;10.97;100.00;99031.34;5057609;28;20489;-49
2024/02/22 01:10:11;;;;;;;0.30;0.20;;;;;;;10.96;100.00;99029.63;5071176;28;20449;-48
2024/02/22 01:12:38;;;;;;;0.30;0.20;;;;;;;10.84;100.00;99018.75;5071249;28;20501;-48
2024/02/22 01:15:06;;;;;;;0.30;0.20;;;;;;;10.82;100.00;99018.81;5063969;28;20478;-48
2024/02/22 01:17:33;;;;;;;0.30;0.20;;;;;;;10.77;100.00;99014.66;5071559;28;20893;-49
2024/02/22 01:19:59;;;;;;;0.30;0.20;;;;;;;10.90;100.00;99007.78;5071313;28;20450;-48
2024/02/22 01:22:26;;;;;;;0.30;0.20;;;;;;;10.99;100.00;99007.34;5071247;28;20477;-48
2024/02/22 01:24:52;;;;;;;0.30;0.20;;;;;;;10.92;100.00;98998.81;5071108;28;20452;-49
2024/02/22 01:27:19;;;;;;;0.30;0.20;;;;;;;10.97;100.00;98996.78;5071103;28;20930;-48
2024/02/22 01:29:45;;;;;;;0.30;0.20;;;;;;;10.91;100.00;98990.91;5070909;28;20453;-48
2024/02/22 01:32:12;;;;;;;0.30;0.20;;;;;;;10.91;100.00;98980.28;5062096;28;20827;-49
2024/02/22 01:34:39;;;;;;;0.30;0.20;;;;;;;10.92;100.00;98974.88;5061372;28;20454;-48
2024/02/22 01:37:07;;;;;;;0.30;0.20;;;;;;;10.87;100.00;98973.41;5055468;28;20552;-48
2024/02/22 01:39:34;;;;;;;0.30;0.20;;;;;;;11.04;100.00;98964.56;5070971;28;20565;-49
2024/02/22 01:42:01;;;;;;;0.30;0.20;;;;;;;10.89;100.00;98960.88;5070993;28;20450;-48
2024/02/22 01:44:28;;;;;;;0.30;0.20;;;;;;;10.84;100.00;98960.28;5070728;28;20470;-49
2024/02/22 01:46:55;;;;;;;0.30;0.20;;;;;;;10.73;100.00;98954.63;5071895;28;20466;-49
2024/02/22 01:49:23;;;;;;;0.30;0.20;;;;;;;10.84;100.00;98939.00;5074750;28;20449;-48
2024/02/22 01:51:59;;;;;;;0.30;0.20;;;;;;;10.93;100.00;98935.84;5074988;28;20452;-49
2024/02/22 01:54:26;;;;;;;0.30;0.20;;;;;;;10.97;100.00;98932.97;5073163;28;20477;-49
2024/02/22 01:56:53;;;;;;;0.30;0.20;;;;;;;11.04;100.00;98932.63;5074490;28;20568;-49
2024/02/22 01:59:19;;;;;;;0.30;0.20;;;;;;;10.77;100.00;98925.16;5067885;28;20461;-48
2024/02/22 02:01:50;;;;;;;0.30;0.20;;;;;;;10.93;100.00;98925.22;5052755;28;20475;-49
2024/02/22 02:04:18;;;;;;;0.30;0.20;;;;;;;10.80;100.00;98917.00;5071559;28;20461;-49
2024/02/22 02:06:45;;;;;;;0.30;0.20;;;;;;;10.79;100.00;98919.75;5063921;28;20565;-49
2024/02/22 02:09:14;;;;;;;0.30;0.20;;;;;;;10.85;100.00;98915.00;5073117;28;20456;-49
2024/02/22 02:11:41;;;;;;;0.30;0.20;;;;;;;10.84;100.00;98907.97;5074563;28;20503;-49
2024/02/22 02:14:08;;;;;;;0.30;0.20;;;;;;;10.73;100.00;98905.00;5074169;28;20524;-49
2024/02/22 02:16:35;;;;;;;0.30;0.20;;;;;;;10.89;100.00;98899.75;5074462;28;20885;-48
2024/02/22 02:19:07;;;;;;;0.30;0.20;;;;;;;10.91;100.00;98896.06;5074205;28;20495;-49
2024/02/22 02:21:56;;;;;;;0.30;0.20;;;;;;;11.03;100.00;98883.91;5074111;28;20449;-48
2024/02/22 02:24:34;;;;;;;0.30;0.20;;;;;;;10.92;100.00;98876.50;5074443;28;20476;-49
2024/02/22 02:27:00;;;;;;;0.30;0.20;;;;;;;10.97;100.00;98878.94;5074161;28;20441;-49
2024/02/22 02:29:26;;;;;;;0.30;0.20;;;;;;;10.92;100.00;98867.66;5074214;28;20454;-49
2024/02/22 02:31:53;;;;;;;0.30;0.20;;;;;;;10.94;100.00;98866.66;5074024;28;20474;-49
2024/02/22 02:34:19;;;;;;;0.83;0.83;;;;;;;10.85;100.00;98861.84;5060938;28;20470;-48
2024/02/22 02:36:46;;;;;;;0.30;0.20;;;;;;;10.95;100.00;98849.75;5055007;28;20570;-49
2024/02/22 02:39:13;;;;;;;0.30;0.20;;;;;;;10.95;100.00;98846.22;5074184;28;20539;-48
2024/02/22 02:41:39;;;;;;;0.30;0.20;;;;;;;10.88;100.00;98845.72;5073682;28;21036;-49
2024/02/22 02:44:05;;;;;;;0.30;0.20;;;;;;;10.92;100.00;98838.44;5073709;28;20557;-48
2024/02/22 02:46:32;;;;;;;0.30;0.20;;;;;;;10.83;100.00;98839.78;5073627;28;20961;-48
2024/02/22 02:48:59;;;;;;;0.30;0.20;;;;;;;10.93;100.00;98841.00;5073716;28;20791;-48
2024/02/22 02:51:25;;;;;;;0.30;0.20;;;;;;;10.86;100.00;98834.31;5073678;28;20823;-48
2024/02/22 02:53:51;;;;;;;0.30;0.20;;;;;;;10.92;100.00;98836.63;5074184;28;20487;-49
2024/02/22 02:56:18;;;;;;;0.30;0.20;;;;;;;10.94;100.00;98829.44;5073577;28;20450;-48
2024/02/22 02:58:44;;;;;;;0.30;0.20;;;;;;;10.93;100.00;98818.88;5071547;28;20904;-48
2024/02/22 03:01:11;;;;;;;0.30;0.20;;;;;;;10.92;100.00;98822.47;5050708;28;20815;-48
2024/02/22 03:03:37;;;;;;;0.30;0.20;;;;;;;11.03;100.00;98819.25;5054626;28;20475;-48
2024/02/22 03:06:04;;;;;;;0.30;0.20;;;;;;;10.96;100.00;98819.59;5055859;28;20447;-48
2024/02/22 03:08:31;;;;;;;0.30;0.20;;;;;;;11.07;100.00;98807.50;5073458;28;20997;-48
2024/02/22 03:10:57;;;;;;;0.30;0.20;;;;;;;10.97;100.00;98805.34;5073438;28;20456;-48
2024/02/22 03:13:24;;;;;;;0.30;0.20;;;;;;;11.00;100.00;98799.00;5073238;28;20528;-48
2024/02/22 03:15:51;;;;;;;0.30;0.20;;;;;;;11.05;100.00;98794.28;5073237;28;20539;-48
2024/02/22 03:18:18;;;;;;;0.30;0.20;;;;;;;11.08;100.00;98796.78;5073110;28;21002;-48
2024/02/22 03:20:45;;;;;;;0.30;0.20;;;;;;;11.22;100.00;98796.00;5073511;28;20456;-48
2024/02/22 03:23:12;;;;;;;0.30;0.20;;;;;;;10.99;100.00;98794.63;5073112;28;20480;-48
2024/02/22 03:25:39;;;;;;;0.30;0.20;;;;;;;11.28;100.00;98785.91;5073262;28;20453;-49
2024/02/22 03:28:06;;;;;;;0.30;0.20;;;;;;;11.20;100.00;98784.59;5072918;28;20623;-48
2024/02/22 03:30:33;;;;;;;0.30;0.20;;;;;;;11.10;100.00;98776.31;5072935;28;20446;-49
2024/02/22 03:33:01;;;;;;;0.30;0.20;;;;;;;11.20;100.00;98793.44;5072963;28;20469;-49
2024/02/22 03:35:29;;;;;;;0.30;0.20;;;;;;;11.18;100.00;98783.84;5066934;28;20483;-48
2024/02/22 03:37:55;;;;;;;0.30;0.20;;;;;;;11.09;100.00;98781.69;5052959;28;20499;-49
2024/02/22 03:40:22;;;;;;;0.30;0.20;;;;;;;11.39;100.00;98784.47;5072618;28;20446;-48
2024/02/22 03:42:48;;;;;;;0.30;0.20;;;;;;;11.20;100.00;98779.28;5072559;28;20564;-49
2024/02/22 03:45:15;;;;;;;0.30;0.20;;;;;;;11.15;100.00;98776.03;5072238;28;20527;-48
2024/02/22 03:47:41;;;;;;;0.30;0.20;;;;;;;11.24;100.00;98772.88;5072744;28;20468;-48
2024/02/22 03:50:08;;;;;;;0.30;0.20;;;;;;;11.35;100.00;98781.09;5072721;28;20448;-48
2024/02/22 03:52:35;;;;;;;0.30;0.20;;;;;;;11.34;100.00;98763.41;5072642;28;21042;-49
2024/02/22 03:55:02;;;;;;;0.30;0.20;;;;;;;11.40;100.00;98755.09;5072613;28;20446;-48
2024/02/22 03:57:28;;;;;;;0.30;0.20;;;;;;;11.25;100.00;98756.84;5072311;28;21012;-48
2024/02/22 03:59:55;;;;;;;0.30;0.20;;;;;;;11.51;100.00;98754.47;5053846;28;21039;-48
2024/02/22 04:02:22;;;;;;;0.30;0.20;;;;;;;11.28;100.00;98743.34;5060548;28;20540;-49
2024/02/22 04:04:53;;;;;;;0.30;0.20;;;;;;;11.27;100.00;98736.31;5072264;28;20485;-49
2024/02/22 04:07:22;;;;;;;0.30;0.20;;;;;;;11.24;100.00;98728.53;5052910;28;20446;-48
2024/02/22 04:09:49;;;;;;;0.30;0.20;;;;;;;11.27;100.00;98722.16;5071699;28;20450;-49
2024/02/22 04:12:15;;;;;;;0.30;0.20;;;;;;;11.34;100.00;98727.97;5072020;28;20545;-48
2024/02/22 04:14:42;;;;;;;0.30;0.20;;;;;;;11.19;100.00;98724.38;5071948;28;20450;-48
2024/02/22 04:17:08;;;;;;;0.30;0.20;;;;;;;11.14;100.00;98722.00;5072199;28;20489;-48
2024/02/22 04:19:35;;;;;;;0.30;0.20;;;;;;;11.10;100.00;98730.22;5071818;28;20479;-48
2024/02/22 04:22:02;;;;;;;0.30;0.20;;;;;;;11.23;100.00;98725.91;5072159;28;20493;-49
2024/02/22 04:24:28;;;;;;;0.30;0.20;;;;;;;11.12;100.00;98723.03;5071803;28;20498;-48
2024/02/22 04:26:56;;;;;;;0.30;0.20;;;;;;;11.15;100.00;98720.19;5071775;28;20990;-48
2024/02/22 04:29:22;;;;;;;2.63;2.53;;;;;;;11.14;100.00;98710.50;5071783;28;20446;-49
2024/02/22 04:31:49;;;;;;;0.30;0.20;;;;;;;11.02;100.00;98700.53;5071944;28;20450;-48
2024/02/22 04:34:16;;;;;;;0.30;0.20;;;;;;;10.97;100.00;98696.34;5071667;28;20561;-48
2024/02/22 04:36:42;;;;;;;0.30;0.20;;;;;;;11.16;100.00;98697.97;5066071;28;20452;-49
2024/02/22 04:39:12;;;;;;;0.30;0.20;;;;;;;11.07;100.00;98703.78;5071483;28;20489;-49
2024/02/22 04:41:38;;;;;;;0.30;0.20;;;;;;;11.07;100.00;98699.34;5071619;28;20890;-48
2024/02/22 04:44:05;;;;;;;0.30;0.20;;;;;;;11.06;100.00;98694.09;5071474;28;20599;-49
2024/02/22 04:46:33;;;;;;;0.30;0.20;;;;;;;11.07;100.00;98698.47;5071676;28;20538;-49
2024/02/22 04:49:01;;;;;;;0.30;0.20;;;;;;;11.01;100.00;98686.41;5071910;28;20445;-48
2024/02/22 04:51:31;;;;;;;0.30;0.20;;;;;;;11.02;100.00;98681.94;5071606;28;20495;-48
2024/02/22 04:53:58;;;;;;;0.30;0.20;;;;;;;11.02;100.00;98676.63;5071401;28;20560;-49
2024/02/22 04:56:25;;;;;;;0.30;0.20;;;;;;;11.05;100.00;98676.44;5071953;28;20446;-48
2024/02/22 04:58:51;;;;;;;0.30;0.20;;;;;;;10.91;100.00;98674.56;5068001;28;20489;-49
2024/02/22 05:01:18;;;;;;;0.30;0.20;;;;;;;10.97;100.00;98674.22;5045425;28;20492;-48
2024/02/22 05:03:46;;;;;;;0.30;0.20;;;;;;;10.99;100.00;98661.69;5070534;28;20497;-48
2024/02/22 05:06:12;;;;;;;0.30;0.20;;;;;;;10.97;100.00;98653.81;5053340;28;20543;-48
2024/02/22 05:08:39;;;;;;;0.30;0.20;;;;;;;11.01;100.00;98646.50;5070747;28;20442;-48
2024/02/22 05:11:09;;;;;;;0.30;0.20;;;;;;;11.03;100.00;98636.66;5071333;28;20453;-48
2024/02/22 05:13:36;;;;;;;0.30;0.20;;;;;;;11.07;100.00;98640.84;5071276;28;20470;-49
2024/02/22 05:16:02;;;;;;;0.30;0.20;;;;;;;11.10;100.00;98648.66;5071077;28;20446;-48
2024/02/22 05:18:29;;;;;;;0.30;0.20;;;;;;;11.04;100.00;98646.34;5071272;28;20517;-49
2024/02/22 05:20:56;;;;;;;0.30;0.20;;;;;;;11.12;100.00;98630.81;5071914;28;20453;-48
2024/02/22 05:23:24;;;;;;;0.30;0.20;;;;;;;11.17;100.00;98638.50;5075174;28;21067;-49
2024/02/22 05:25:50;;;;;;;0.30;0.20;;;;;;;11.26;100.00;98641.50;5075537;28;20449;-49
2024/02/22 05:28:17;;;;;;;0.30;0.20;;;;;;;10.96;100.00;98635.25;5075897;28;20476;-48
2024/02/22 05:30:43;;;;;;;0.30;0.20;;;;;;;11.16;100.00;98631.47;5075042;28;21045;-48
2024/02/22 05:33:10;;;;;;;0.30;0.20;;;;;;;11.13;100.00;98624.53;5075415;28;20472;-49
2024/02/22 05:35:37;;;;;;;0.30;0.20;;;;;;;11.23;100.00;98623.03;5070072;28;20451;-48
2024/02/22 05:38:04;;;;;;;0.30;0.20;;;;;;;11.38;100.00;98623.13;5075166;28;20490;-49
2024/02/22 05:40:30;;;;;;;0.30;0.20;;;;;;;11.27;100.00;98618.44;5075009;28;20454;-48
2024/02/22 05:42:58;;;;;;;0.30;0.20;;;;;;;11.19;100.00;98613.53;5075236;28;20501;-49
2024/02/22 05:45:41;;;;;;;0.30;0.20;;;;;;;11.30;100.00;98599.63;5074723;28;20450;-49
2024/02/22 05:48:09;;;;;;;0.30;0.20;;;;;;;11.22;100.00;98592.06;5074916;28;20437;-49
2024/02/22 05:50:35;;;;;;;0.30;0.20;;;;;;;11.21;100.00;98595.69;5074915;28;20524;-48
2024/02/22 05:53:02;;;;;;;0.30;0.20;;;;;;;11.31;100.00;98585.38;5074760;28;20485;-49
2024/02/22 05:55:28;;;;;;;0.30;0.20;;;;;;;11.39;100.00;98587.59;5074573;28;20449;-48
2024/02/22 05:57:56;;;;;;;0.30;0.20;;;;;;;11.32;100.00;98592.41;5073369;28;20489;-48
2024/02/22 06:00:25;;;;;;;0.30;0.20;;;;;;;11.32;100.00;98579.09;5052201;28;20504;-48
2024/02/22 06:02:52;;;;;;;0.30;0.20;;;;;;;11.13;100.00;98566.03;5066654;28;20476;-49
2024/02/22 06:05:18;;;;;;;0.30;0.20;;;;;;;11.38;100.00;98569.91;5071294;28;20870;-49
2024/02/22 06:07:45;;;;;;;0.30;0.20;;;;;;;11.28;100.00;98565.13;5059033;28;20507;-48
2024/02/22 06:10:11;;;;;;;0.30;0.20;;;;;;;11.23;100.00;98563.69;5074217;28;20450;-49
2024/02/22 06:12:38;;;;;;;0.30;0.20;;;;;;;11.18;100.00;98560.44;5074359;28;20540;-49
2024/02/22 06:15:05;;;;;;;0.30;0.20;;;;;;;11.37;100.00;98566.38;5074099;28;20523;-49
2024/02/22 06:17:32;;;;;;;0.30;0.20;;;;;;;11.34;100.00;98563.91;5074706;28;20446;-48
2024/02/22 06:20:02;;;;;;;0.30;0.20;;;;;;;11.34;100.00;98569.22;5074492;28;20441;-49
2024/02/22 06:22:29;;;;;;;0.30;0.20;;;;;;;11.33;100.00;98570.19;5074441;28;20446;-49
2024/02/22 06:24:55;;;;;;;0.30;0.20;;;;;;;11.33;100.00;98564.00;5074234;28;20481;-49
2024/02/22 06:27:22;;;;;;;0.30;0.20;;;;;;;11.20;100.00;98555.88;5074137;28;20453;-49
2024/02/22 06:29:48;;;;;;;0.30;0.20;;;;;;;11.25;100.00;98553.84;5073747;28;20454;-49
2024/02/22 06:32:15;;;;;;;0.30;0.20;;;;;;;11.25;100.00;98543.19;5073592;28;20942;-49
2024/02/22 06:34:42;;;;;;;0.30;0.20;;;;;;;11.25;100.00;98538.72;5047756;28;20461;-49
2024/02/22 06:37:12;;;;;;;0.30;0.20;;;;;;;11.34;100.00;98536.44;5049696;28;20937;-49
2024/02/22 06:39:39;;;;;;;0.30;0.20;;;;;;;11.33;100.00;98538.25;5074332;28;20539;-49
2024/02/22 06:42:05;;;;;;;0.30;0.20;;;;;;;11.42;100.00;98540.38;5073949;28;20454;-49
2024/02/22 06:44:32;;;;;;;0.30;0.20;;;;;;;11.39;100.00;98524.59;5074115;28;20476;-49
2024/02/22 06:46:58;;;;;;;0.30;0.20;;;;;;;11.39;100.00;98521.94;5073991;28;20452;-48
2024/02/22 06:49:26;;;;;;;0.30;0.20;;;;;;;11.41;100.00;98511.22;5073701;28;20450;-49
2024/02/22 06:51:56;;;;;;;0.30;0.20;;;;;;;11.51;100.00;98507.91;5073705;28;20446;-49
2024/02/22 06:54:23;;;;;;;0.30;0.20;;;;;;;11.29;100.00;98507.47;5073549;28;20484;-49
2024/02/22 06:56:49;;;;;;;0.30;0.20;;;;;;;11.36;100.00;98508.81;5073468;28;20481;-49
2024/02/22 06:59:16;;;;;;;0.30;0.20;;;;;;;11.18;100.00;98508.13;5063262;28;20514;-49
2024/02/22 07:01:43;;;;;;;0.30;0.20;;;;;;;11.36;100.00;98494.66;5053483;28;20871;-49
2024/02/22 07:04:11;;;;;;;0.30;0.20;;;;;;;11.32;100.00;98501.97;5074173;28;20773;-49
2024/02/22 07:06:38;;;;;;;0.30;0.20;;;;;;;11.36;100.00;98498.16;5054403;28;20465;-49
2024/02/22 07:09:05;;;;;;;0.30;0.20;;;;;;;11.44;100.00;98490.59;5073529;28;20442;-49
2024/02/22 07:11:31;;;;;;;0.30;0.20;;;;;;;11.47;100.00;98495.72;5073151;28;20450;-49
2024/02/22 07:13:59;;;;;;;0.30;0.20;;;;;;;11.43;100.00;98501.31;5073135;28;20994;-49
2024/02/22 07:16:27;;;;;;;0.30;0.20;;;;;;;11.47;100.00;98487.72;5073115;28;20454;-48
2024/02/22 07:18:54;;;;;;;0.30;0.20;;;;;;;11.49;100.00;98487.63;5073031;28;21002;-49
2024/02/22 07:21:21;;;;;;;0.30;0.20;;;;;;;11.47;100.00;98500.19;5073072;28;20454;-49
2024/02/22 07:23:47;;;;;;;0.30;0.20;;;;;;;11.49;100.00;98484.97;5073189;28;20643;-49
2024/02/22 07:26:14;;;;;;;0.30;0.20;;;;;;;11.54;100.00;98496.22;5072979;28;20842;-50
2024/02/22 07:28:41;;;;;;;0.30;0.20;;;;;;;11.51;100.00;98485.72;5073078;28;20442;-49
2024/02/22 07:31:08;;;;;;;0.30;0.20;;;;;;;11.49;100.00;98490.28;5073090;28;20454;-49
2024/02/22 07:33:35;;;;;;;0.30;0.20;;;;;;;11.47;100.00;98477.09;5072904;28;20502;-49
2024/02/22 07:36:02;;;;;;;0.30;0.20;;;;;;;11.51;100.00;98472.41;5067142;28;20474;-49
2024/02/22 07:38:28;;;;;;;0.30;0.20;;;;;;;11.47;100.00;98468.25;5072703;28;20489;-48
2024/02/22 07:40:55;;;;;;;0.30;0.20;;;;;;;11.51;100.00;98461.78;5072926;28;20458;-48
2024/02/22 07:43:21;;;;;;;0.30;0.20;;;;;;;11.51;100.00;98465.31;5072966;28;20470;-49
2024/02/22 07:45:48;;;;;;;0.30;0.20;;;;;;;11.57;100.00;98458.75;5071439;28;20456;-48
2024/02/22 07:48:14;;;;;;;0.30;0.20;;;;;;;11.62;100.00;98461.13;5072710;28;20449;-49
2024/02/22 07:50:41;;;;;;;0.30;0.20;;;;;;;11.75;100.00;98454.09;5072426;28;20477;-48
2024/02/22 07:53:07;;;;;;;0.30;0.20;;;;;;;11.47;100.00;98453.13;5072156;28;20847;-48
2024/02/22 07:55:34;;;;;;;0.30;0.20;;;;;;;11.52;100.00;98453.72;5072408;28;20449;-48
2024/02/22 07:58:01;;;;;;;0.30;0.20;;;;;;;11.41;100.00;98442.88;5072443;28;20454;-49
2024/02/22 08:00:27;;;;;;;0.30;0.20;;;;;;;11.68;100.00;98439.47;5049276;28;20538;-48
2024/02/22 08:02:53;;;;;;;0.30;0.20;;;;;;;11.74;100.00;98442.59;5064564;28;20497;-48
2024/02/22 08:05:20;;;;;;;0.30;0.20;;;;;;;11.77;100.00;98444.19;5068642;28;20446;-49
2024/02/22 08:07:46;;;;;;;0.30;0.20;;;;;;;11.89;100.00;98439.94;5057091;28;20450;-48
2024/02/22 08:10:15;;;;;;;0.30;0.20;;;;;;;11.79;100.00;98439.69;5072352;28;20445;-49
2024/02/22 08:12:41;;;;;;;0.30;0.20;;;;;;;11.94;100.00;98440.50;5072463;28;20524;-49
2024/02/22 08:15:08;;;;;;;0.30;0.20;;;;;;;11.85;100.00;98437.47;5072066;28;20450;-48
2024/02/22 08:17:37;;;;;;;0.30;0.20;;;;;;;11.85;100.00;98437.47;5072073;28;20450;-48
2024/02/22 08:20:04;;;;;;;0.30;0.20;;;;;;;11.84;100.00;98433.09;5071797;28;20920;-48
2024/02/22 08:22:31;;;;;;;0.30;0.20;;;;;;;11.89;100.00;98427.47;5072103;28;20454;-49
2024/02/22 08:24:57;;;;;;;0.30;0.20;;;;;;;11.90;100.00;98429.19;5045596;28;20464;-48
2024/02/22 08:27:24;;;;;;;0.30;0.20;;;;;;;11.86;100.00;98423.19;5071874;28;21031;-48
2024/02/22 08:29:50;;;;;;;0.30;0.20;;;;;;;11.95;100.00;98419.13;5071865;28;20450;-48
2024/02/22 08:32:17;;;;;;;0.30;0.20;;;;;;;11.73;100.00;98421.38;5071767;28;20493;-49
2024/02/22 08:34:44;;;;;;;0.30;0.20;;;;;;;11.99;100.00;98415.28;5071647;28;20450;-48
2024/02/22 08:37:10;;;;;;;0.30;0.20;;;;;;;11.95;100.00;98404.94;5065497;28;20986;-48
2024/02/22 08:39:37;;;;;;;0.30;0.20;;;;;;;11.93;100.00;98401.53;5072035;28;20499;-48
2024/02/22 08:42:03;;;;;;;0.30;0.20;;;;;;;11.97;100.00;98395.03;5071716;28;20448;-48
2024/02/22 08:44:30;;;;;;;0.30;0.20;;;;;;;11.99;100.00;98386.00;5071622;28;20505;-48
2024/02/22 08:47:03;;;;;;;0.30;0.20;;;;;;;11.75;100.00;98383.06;5071605;28;20480;-48
2024/02/22 08:49:29;;;;;;;0.30;0.20;;;;;;;12.00;100.00;98377.06;5071947;28;20443;-48
2024/02/22 08:51:56;;;;;;;0.30;0.20;;;;;;;12.04;100.00;98367.03;5071882;28;20579;-49
2024/02/22 08:54:22;;;;;;;0.30;0.20;;;;;;;12.12;100.00;98370.06;5072196;28;20516;-46
2024/02/22 08:56:49;;;;;;;0.30;0.20;;;;;;;12.02;100.00;98366.28;5071369;28;20506;-46
2024/02/22 08:59:15;;;;;;;0.30;0.20;;;;;;;12.20;100.00;98357.13;5061545;28;21000;-47
2024/02/22 09:01:42;;;;;;;0.30;0.20;;;;;;;12.26;100.00;98361.19;5050887;28;20457;-46
2024/02/22 09:04:08;;;;;;;0.30;0.20;;;;;;;12.45;100.00;98356.31;5071831;28;20519;-47
2024/02/22 09:06:36;;;;;;;0.30;0.20;;;;;;;12.53;100.00;98347.81;5051955;28;20447;-47
2024/02/22 09:09:07;;;;;;;0.30;0.20;;;;;;;12.36;100.00;98336.47;5071431;28;20446;-46
2024/02/22 09:11:33;;;;;;;0.30;0.20;;;;;;;12.40;100.00;98329.97;5071438;28;20515;-46
2024/02/22 09:14:00;;;;;;;0.30;0.20;;;;;;;12.31;100.00;98321.75;5071390;28;20470;-47
2024/02/22 09:16:26;;;;;;;0.30;0.20;;;;;;;12.59;100.00;98324.25;5071030;28;20942;-46
2024/02/22 09:18:53;;;;;;;0.30;0.20;;;;;;;12.44;100.00;98318.16;5071467;28;20490;-46
2024/02/22 09:21:20;;;;;;;0.30;0.20;;;;;;;12.40;100.00;98319.31;5071340;28;20541;-46
2024/02/22 09:23:46;;;;;;;0.30;0.20;;;;;;;12.65;100.00;98315.84;5071175;28;20983;-46
2024/02/22 09:26:13;;;;;;;0.30;0.20;;;;;;;12.52;100.00;98314.13;5071127;28;20457;-47
2024/02/22 09:28:40;;;;;;;0.30;0.20;;;;;;;12.59;100.00;98316.25;5071393;28;20990;-46
2024/02/22 09:31:07;;;;;;;0.30;0.20;;;;;;;12.50;100.00;98308.06;5070879;28;20503;-47
2024/02/22 09:33:33;;;;;;;0.30;0.20;;;;;;;12.64;100.00;98307.97;5071491;28;20480;-46
2024/02/22 09:36:00;;;;;;;0.30;0.20;;;;;;;12.65;100.00;98307.00;5065236;28;20533;-46
2024/02/22 09:38:26;;;;;;;0.30;0.20;;;;;;;12.68;100.00;98293.44;5071112;28;21142;-46
2024/02/22 09:40:53;;;;;;;0.30;0.20;;;;;;;12.87;100.00;98293.00;5071334;28;20445;-46
2024/02/22 09:43:20;;;;;;;0.30;0.20;;;;;;;12.79;100.00;98282.91;5071158;28;20470;-45
2024/02/22 09:45:47;;;;;;;0.30;0.20;;;;;;;12.80;100.00;98286.41;5071025;28;20454;-47
2024/02/22 09:48:13;;;;;;;0.30;0.20;;;;;;;12.76;100.00;98283.13;5071019;28;21046;-46
2024/02/22 09:50:40;;;;;;;0.30;0.20;;;;;;;12.73;100.00;98283.31;5071015;28;20456;-47
2024/02/22 09:53:08;;;;;;;0.30;0.20;;;;;;;12.80;100.00;98279.28;5070956;28;20481;-46
2024/02/22 09:55:35;;;;;;;0.30;0.20;;;;;;;12.93;100.00;98265.94;5070862;28;20446;-46
2024/02/22 09:58:02;;;;;;;0.30;0.20;;;;;;;13.03;100.00;98261.66;5071033;28;20457;-46
2024/02/22 10:00:28;;;;;;;0.30;0.20;;;;;;;12.82;100.00;98261.34;5047494;28;20518;-47
2024/02/22 10:02:55;;;;;;;0.30;0.20;;;;;;;13.01;100.00;98258.22;5063433;28;20556;-46
2024/02/22 10:05:22;;;;;;;0.30;0.20;;;;;;;12.99;100.00;98252.16;5066916;28;20446;-46
2024/02/22 10:07:48;;;;;;;0.30;0.20;;;;;;;12.94;100.00;98259.63;5056516;28;20446;-46
2024/02/22 10:10:27;;;;;;;0.30;0.20;;;;;;;13.09;100.00;98249.69;5073371;28;20594;-46
2024/02/22 10:12:54;;;;;;;0.30;0.20;;;;;;;12.93;100.00;98245.44;5074811;28;20477;-46
2024/02/22 10:15:25;;;;;;;0.30;0.20;;;;;;;13.18;100.00;98239.25;5074598;28;20473;-47
2024/02/22 10:17:53;;;;;;;0.30;0.20;;;;;;;13.12;100.00;98226.31;5074845;28;20545;-47
2024/02/22 10:20:28;;;;;;;0.30;0.20;;;;;;;12.90;100.00;98226.16;5074453;28;20498;-46
2024/02/22 10:23:10;;;;;;;0.30;0.20;;;;;;;12.92;100.00;98225.06;5074355;28;20520;-47
2024/02/22 10:25:37;;;;;;;0.30;0.20;;;;;;;12.95;100.00;98216.00;5074312;28;20491;-46
2024/02/22 10:28:04;;;;;;;0.30;0.20;;;;;;;13.02;100.00;98206.63;5074293;28;20446;-46
2024/02/22 10:30:32;;;;;;;0.30;0.20;;;;;;;13.03;100.00;98206.50;5074028;28;20450;-47
2024/02/22 10:33:00;;;;;;;0.30;0.20;;;;;;;13.05;100.00;98201.91;5073850;28;20978;-46
2024/02/22 10:35:28;;;;;;;0.30;0.20;;;;;;;13.07;100.00;98192.94;5068424;28;20490;-47
2024/02/22 10:37:55;;;;;;;0.30;0.20;;;;;;;13.11;100.00;98184.59;5072575;28;21001;-47
2024/02/22 10:40:23;;;;;;;0.30;0.20;;;;;;;12.97;100.00;98182.06;5048870;28;20566;-47
2024/02/22 10:42:50;;;;;;;0.30;0.20;;;;;;;13.00;100.00;98174.69;5073746;28;20481;-47
2024/02/22 10:45:17;;;;;;;0.30;0.20;;;;;;;13.27;100.00;98184.34;5074003;28;20449;-47
2024/02/22 10:47:45;;;;;;;0.30;0.20;;;;;;;13.23;100.00;98188.22;5047408;28;20450;-47
2024/02/22 10:50:14;;;;;;;0.30;0.20;;;;;;;13.29;100.00;98182.41;5073702;28;20518;-47
2024/02/22 10:52:41;;;;;;;0.30;0.20;;;;;;;13.21;99.95;98180.31;5073647;28;20941;-47
2024/02/22 10:55:13;;;;;;;0.30;0.20;;;;;;;13.29;100.00;98177.06;5073962;28;20453;-46
2024/02/22 10:57:43;;;;;;;0.30;0.20;;;;;;;13.17;100.00;98175.31;5074166;28;21205;-46
2024/02/22 11:00:11;;;;;;;0.30;0.20;;;;;;;13.23;100.00;98169.53;5053058;28;20579;-46
2024/02/22 11:02:39;;;;;;;0.30;0.20;;;;;;;13.09;100.00;98165.19;5063738;28;20473;-47
2024/02/22 11:05:11;;;;;;;0.30;0.20;;;;;;;13.24;100.00;98153.41;5066613;28;20542;-46
2024/02/22 11:07:49;;;;;;;0.30;0.20;;;;;;;13.21;100.00;98139.47;5055919;28;20454;-47
2024/02/22 11:10:17;;;;;;;0.30;0.20;;;;;;;13.28;100.00;98140.69;5073638;28;20446;-47
2024/02/22 11:12:44;;;;;;;0.30;0.20;;;;;;;13.25;100.00;98130.25;5073495;28;20560;-46
2024/02/22 11:15:11;;;;;;;0.30;0.20;;;;;;;13.26;100.00;98124.81;5046228;28;20453;-47
2024/02/22 11:17:50;;;;;;;0.30;0.20;;;;;;;13.36;100.00;98118.78;5073718;28;20889;-46
2024/02/22 11:20:17;;;;;;;0.30;0.20;;;;;;;13.36;99.79;98108.13;5049976;28;20947;-47
2024/02/22 11:22:44;;;;;;;0.30;0.20;;;;;;;13.40;100.00;98105.09;5073092;28;21012;-47
2024/02/22 11:25:10;;;;;;;0.30;0.20;;;;;;;13.31;99.84;98106.66;5073267;28;20871;-46
2024/02/22 11:27:37;;;;;;;0.30;0.20;;;;;;;13.15;99.88;98091.84;5072983;28;20452;-47